Guemes, Washington
Current Conditions -  °F | °C
As of 5:56 AM on Friday 28 Nov 2014 (Local Time) from KNUW Reporting Station
Moderate Rain Moderate Rain  
Wind Chill: 50°   Ceiling: 2200
Heat Index: 50°   Visibility: 8mi
Dew Point: 45°   Wind: 18mph
Humidity: 83%   Direction: 240°WSW
Pressure: 29.54"   Gusts: NA
Location:  48.4652°N, 122.617°W
Report Text: KNUW 281356Z 24016KT 8SM RA OVC022 10/07 A2954 RMK AO2 SLP007 P0002 T01000072 $
Loading
Personal Weather Stations






























Interactive Weather Map New forecast layout! Learn more

10-Day Weather Forecast

Advertisements
Track Severe Weather on mobile